sensor_id;sensor_type;location;lat;lon;timestamp;pressure;altitude;pressure_sealevel;temperature;humidity
41334;BME280;27078;46.428;6.256;2023-02-04T00:00:19;98107.75;;;2.42;100.00
41334;BME280;27078;46.428;6.256;2023-02-04T00:02:45;98108.56;;;2.44;100.00
41334;BME280;27078;46.428;6.256;2023-02-04T00:05:11;98104.28;;;2.41;100.00
41334;BME280;27078;46.428;6.256;2023-02-04T00:07:37;98113.72;;;2.46;100.00
41334;BME280;27078;46.428;6.256;2023-02-04T00:10:03;98112.72;;;2.50;100.00
41334;BME280;27078;46.428;6.256;2023-02-04T00:12:29;98117.19;;;2.46;100.00
41334;BME280;27078;46.428;6.256;2023-02-04T00:14:54;98110.59;;;2.33;100.00
41334;BME280;27078;46.428;6.256;2023-02-04T00:17:20;98123.91;;;2.23;100.00
41334;BME280;27078;46.428;6.256;2023-02-04T00:19:45;98130.28;;;2.13;100.00
41334;BME280;27078;46.428;6.256;2023-02-04T00:22:10;98123.56;;;2.06;100.00
41334;BME280;27078;46.428;6.256;2023-02-04T00:24:36;98124.00;;;1.91;100.00
41334;BME280;27078;46.428;6.256;2023-02-04T00:27:03;98121.06;;;1.70;100.00
41334;BME280;27078;46.428;6.256;2023-02-04T00:29:29;98118.59;;;1.66;100.00
41334;BME280;27078;46.428;6.256;2023-02-04T00:31:55;98116.69;;;1.71;100.00
41334;BME280;27078;46.428;6.256;2023-02-04T00:34:20;98111.28;;;1.78;100.00
41334;BME280;27078;46.428;6.256;2023-02-04T00:36:45;98107.75;;;1.81;100.00
41334;BME280;27078;46.428;6.256;2023-02-04T00:39:11;98099.78;;;1.86;100.00
41334;BME280;27078;46.428;6.256;2023-02-04T00:41:36;98095.34;;;1.89;100.00
41334;BME280;27078;46.428;6.256;2023-02-04T00:44:02;98089.28;;;1.89;100.00
41334;BME280;27078;46.428;6.256;2023-02-04T00:46:27;98085.00;;;1.86;100.00
41334;BME280;27078;46.428;6.256;2023-02-04T00:48:53;98085.09;;;1.83;100.00
41334;BME280;27078;46.428;6.256;2023-02-04T00:51:18;98074.72;;;1.81;100.00
41334;BME280;27078;46.428;6.256;2023-02-04T00:53:43;98067.00;;;1.78;100.00
41334;BME280;27078;46.428;6.256;2023-02-04T00:56:09;98058.38;;;1.76;100.00
41334;BME280;27078;46.428;6.256;2023-02-04T00:58:35;98068.84;;;1.73;100.00
41334;BME280;27078;46.428;6.256;2023-02-04T01:01:00;98063.75;;;1.70;100.00
41334;BME280;27078;46.428;6.256;2023-02-04T01:03:25;98068.22;;;1.65;100.00
41334;BME280;27078;46.428;6.256;2023-02-04T01:05:51;98063.13;;;1.60;100.00
41334;BME280;27078;46.428;6.256;2023-02-04T01:08:16;98064.06;;;1.58;100.00
41334;BME280;27078;46.428;6.256;2023-02-04T01:10:41;98064.06;;;1.58;100.00
41334;BME280;27078;46.428;6.256;2023-02-04T01:13:07;98060.59;;;1.59;100.00
41334;BME280;27078;46.428;6.256;2023-02-04T01:15:33;98047.56;;;1.59;100.00
41334;BME280;27078;46.428;6.256;2023-02-04T01:17:59;98046.75;;;1.57;100.00
41334;BME280;27078;46.428;6.256;2023-02-04T01:20:24;98051.03;;;1.59;100.00
41334;BME280;27078;46.428;6.256;2023-02-04T01:22:50;98055.28;;;1.62;100.00
41334;BME280;27078;46.428;6.256;2023-02-04T01:25:15;98051.78;;;1.63;100.00
41334;BME280;27078;46.428;6.256;2023-02-04T01:27:42;98059.72;;;1.58;100.00
41334;BME280;27078;46.428;6.256;2023-02-04T01:30:08;98063.34;;;1.53;100.00
41334;BME280;27078;46.428;6.256;2023-02-04T01:32:34;98056.34;;;1.55;100.00
41334;BME280;27078;46.428;6.256;2023-02-04T01:34:59;98063.53;;;1.47;100.00
41334;BME280;27078;46.428;6.256;2023-02-04T01:37:24;98066.34;;;1.37;100.00
41334;BME280;27078;46.428;6.256;2023-02-04T01:39:50;98072.59;;;1.32;100.00
41334;BME280;27078;46.428;6.256;2023-02-04T01:42:15;98065.06;;;1.21;100.00
41334;BME280;27078;46.428;6.256;2023-02-04T01:44:40;98065.06;;;1.21;100.00
41334;BME280;27078;46.428;6.256;2023-02-04T01:47:06;98063.28;;;1.23;100.00
41334;BME280;27078;46.428;6.256;2023-02-04T01:49:31;98061.13;;;1.37;100.00
41334;BME280;27078;46.428;6.256;2023-02-04T01:51:57;98069.28;;;1.58;100.00
41334;BME280;27078;46.428;6.256;2023-02-04T01:54:23;98061.78;;;1.78;100.00
41334;BME280;27078;46.428;6.256;2023-02-04T01:56:49;98061.34;;;1.94;100.00
41334;BME280;27078;46.428;6.256;2023-02-04T01:59:17;98061.94;;;2.03;100.00
41334;BME280;27078;46.428;6.256;2023-02-04T02:01:48;98057.41;;;2.10;100.00
41334;BME280;27078;46.428;6.256;2023-02-04T02:04:19;98052.75;;;2.20;100.00
41334;BME280;27078;46.428;6.256;2023-02-04T02:06:51;98057.84;;;2.24;100.00
41334;BME280;27078;46.428;6.256;2023-02-04T02:09:18;98051.66;;;2.29;100.00
41334;BME280;27078;46.428;6.256;2023-02-04T02:11:43;98044.72;;;2.28;100.00
41334;BME280;27078;46.428;6.256;2023-02-04T02:14:09;98048.22;;;2.27;100.00
41334;BME280;27078;46.428;6.256;2023-02-04T02:16:34;98025.47;;;2.32;100.00
41334;BME280;27078;46.428;6.256;2023-02-04T02:18:59;98032.38;;;2.33;100.00
41334;BME280;27078;46.428;6.256;2023-02-04T02:21:34;98034.06;;;2.35;100.00
41334;BME280;27078;46.428;6.256;2023-02-04T02:26:46;98025.31;;;2.36;100.00
41334;BME280;27078;46.428;6.256;2023-02-04T02:29:12;98028.66;;;2.41;100.00
41334;BME280;27078;46.428;6.256;2023-02-04T02:31:37;98023.22;;;2.48;100.00
41334;BME280;27078;46.428;6.256;2023-02-04T02:34:02;98012.84;;;2.46;100.00
41334;BME280;27078;46.428;6.256;2023-02-04T02:36:28;98006.78;;;2.46;100.00
41334;BME280;27078;46.428;6.256;2023-02-04T02:38:53;98006.78;;;2.46;100.00
41334;BME280;27078;46.428;6.256;2023-02-04T02:41:20;97998.09;;;2.45;100.00
41334;BME280;27078;46.428;6.256;2023-02-04T02:43:45;97988.66;;;2.41;100.00
41334;BME280;27078;46.428;6.256;2023-02-04T02:46:10;97998.06;;;2.47;100.00
41334;BME280;27078;46.428;6.256;2023-02-04T02:48:36;97996.56;;;2.39;100.00
41334;BME280;27078;46.428;6.256;2023-02-04T02:51:01;97994.28;;;2.29;100.00
41334;BME280;27078;46.428;6.256;2023-02-04T02:53:27;97999.06;;;2.14;100.00
41334;BME280;27078;46.428;6.256;2023-02-04T02:55:52;98001.13;;;2.03;100.00
41334;BME280;27078;46.428;6.256;2023-02-04T02:58:28;97997.69;;;2.01;100.00
41334;BME280;27078;46.428;6.256;2023-02-04T03:00:57;98010.66;;;2.04;100.00
41334;BME280;27078;46.428;6.256;2023-02-04T03:03:29;97993.88;;;2.13;100.00
41334;BME280;27078;46.428;6.256;2023-02-04T03:06:03;97999.75;;;2.19;100.00
41334;BME280;27078;46.428;6.256;2023-02-04T03:08:31;97997.47;;;2.37;100.00
41334;BME280;27078;46.428;6.256;2023-02-04T03:10:56;98001.69;;;2.41;100.00
41334;BME280;27078;46.428;6.256;2023-02-04T03:13:22;97997.19;;;2.46;100.00
41334;BME280;27078;46.428;6.256;2023-02-04T03:15:47;97994.59;;;2.46;100.00
41334;BME280;27078;46.428;6.256;2023-02-04T03:18:17;97996.28;;;2.47;100.00
41334;BME280;27078;46.428;6.256;2023-02-04T03:20:43;98001.63;;;2.44;100.00
41334;BME280;27078;46.428;6.256;2023-02-04T03:23:09;98003.66;;;2.34;100.00
41334;BME280;27078;46.428;6.256;2023-02-04T03:25:35;97990.75;;;2.30;100.00
41334;BME280;27078;46.428;6.256;2023-02-04T03:28:00;97992.84;;;2.18;100.00
41334;BME280;27078;46.428;6.256;2023-02-04T03:30:26;97989.50;;;2.13;100.00
41334;BME280;27078;46.428;6.256;2023-02-04T03:32:52;97991.31;;;2.11;100.00
41334;BME280;27078;46.428;6.256;2023-02-04T03:35:18;97986.16;;;2.10;100.00
41334;BME280;27078;46.428;6.256;2023-02-04T03:37:44;97988.88;;;2.05;100.00
41334;BME280;27078;46.428;6.256;2023-02-04T03:40:10;97992.25;;;2.09;100.00
41334;BME280;27078;46.428;6.256;2023-02-04T03:42:35;97986.50;;;2.27;100.00
41334;BME280;27078;46.428;6.256;2023-02-04T03:45:00;97988.97;;;2.32;100.00
41334;BME280;27078;46.428;6.256;2023-02-04T03:47:26;97984.69;;;2.29;100.00
41334;BME280;27078;46.428;6.256;2023-02-04T03:49:51;97975.00;;;2.33;100.00
41334;BME280;27078;46.428;6.256;2023-02-04T03:52:16;97985.53;;;2.30;100.00
41334;BME280;27078;46.428;6.256;2023-02-04T03:54:42;97981.28;;;2.27;100.00
41334;BME280;27078;46.428;6.256;2023-02-04T03:57:07;97984.78;;;2.26;100.00
41334;BME280;27078;46.428;6.256;2023-02-04T03:59:33;97985.53;;;2.30;100.00
41334;BME280;27078;46.428;6.256;2023-02-04T04:01:58;97981.94;;;2.34;100.00
41334;BME280;27078;46.428;6.256;2023-02-04T04:04:23;97978.53;;;2.32;100.00
41334;BME280;27078;46.428;6.256;2023-02-04T04:06:49;97984.50;;;2.35;100.00
41334;BME280;27078;46.428;6.256;2023-02-04T04:09:15;97981.75;;;2.40;100.00
41334;BME280;27078;46.428;6.256;2023-02-04T04:11:40;97978.03;;;2.47;100.00
41334;BME280;27078;46.428;6.256;2023-02-04T04:14:05;97977.75;;;2.56;100.00
41334;BME280;27078;46.428;6.256;2023-02-04T04:16:30;97975.84;;;2.61;100.00
41334;BME280;27078;46.428;6.256;2023-02-04T04:18:56;97961.47;;;2.75;100.00
41334;BME280;27078;46.428;6.256;2023-02-04T04:21:21;97959.84;;;2.97;100.00
41334;BME280;27078;46.428;6.256;2023-02-04T04:23:46;97957.50;;;3.15;100.00
41334;BME280;27078;46.428;6.256;2023-02-04T04:26:12;97953.19;;;3.39;100.00
41334;BME280;27078;46.428;6.256;2023-02-04T04:28:37;97941.06;;;3.83;100.00
41334;BME280;27078;46.428;6.256;2023-02-04T04:31:02;97936.28;;;4.17;100.00
41334;BME280;27078;46.428;6.256;2023-02-04T04:33:28;97934.47;;;4.41;100.00
41334;BME280;27078;46.428;6.256;2023-02-04T04:35:53;97927.31;;;4.66;100.00
41334;BME280;27078;46.428;6.256;2023-02-04T04:38:18;97942.75;;;4.93;100.00
41334;BME280;27078;46.428;6.256;2023-02-04T04:40:44;97938.50;;;4.90;100.00
41334;BME280;27078;46.428;6.256;2023-02-04T04:43:09;97940.22;;;4.92;100.00
41334;BME280;27078;46.428;6.256;2023-02-04T04:45:34;97929.81;;;4.90;100.00
41334;BME280;27078;46.428;6.256;2023-02-04T04:48:00;97926.53;;;4.64;100.00
41334;BME280;27078;46.428;6.256;2023-02-04T04:50:25;97919.50;;;4.22;100.00
41334;BME280;27078;46.428;6.256;2023-02-04T04:52:50;97927.50;;;3.96;100.00
41334;BME280;27078;46.428;6.256;2023-02-04T04:55:16;97919.47;;;3.78;100.00
41334;BME280;27078;46.428;6.256;2023-02-04T04:57:41;97926.19;;;3.85;100.00
41334;BME280;27078;46.428;6.256;2023-02-04T05:00:07;97921.75;;;3.87;100.00
41334;BME280;27078;46.428;6.256;2023-02-04T05:02:33;97924.03;;;3.73;100.00
41334;BME280;27078;46.428;6.256;2023-02-04T05:04:58;97931.19;;;3.44;100.00
41334;BME280;27078;46.428;6.256;2023-02-04T05:07:24;97934.78;;;3.17;100.00
41334;BME280;27078;46.428;6.256;2023-02-04T05:09:49;97939.22;;;3.15;100.00
41334;BME280;27078;46.428;6.256;2023-02-04T05:12:14;97946.16;;;3.16;100.00
41334;BME280;27078;46.428;6.256;2023-02-04T05:14:40;97948.19;;;3.08;100.00
41334;BME280;27078;46.428;6.256;2023-02-04T05:17:05;97945.03;;;3.23;100.00
41334;BME280;27078;46.428;6.256;2023-02-04T05:19:31;97955.00;;;3.12;100.00
41334;BME280;27078;46.428;6.256;2023-02-04T05:21:56;97949.56;;;3.18;100.00
41334;BME280;27078;46.428;6.256;2023-02-04T05:24:22;97943.25;;;3.23;100.00
41334;BME280;27078;46.428;6.256;2023-02-04T05:26:47;97947.00;;;3.16;100.00
41334;BME280;27078;46.428;6.256;2023-02-04T05:29:12;97946.75;;;3.24;100.00
41334;BME280;27078;46.428;6.256;2023-02-04T05:31:38;97945.94;;;3.22;100.00
41334;BME280;27078;46.428;6.256;2023-02-04T05:34:03;97953.28;;;3.36;100.00
41334;BME280;27078;46.428;6.256;2023-02-04T05:36:28;97964.91;;;3.27;100.00
41334;BME280;27078;46.428;6.256;2023-02-04T05:38:53;97961.41;;;3.28;100.00
41334;BME280;27078;46.428;6.256;2023-02-04T05:41:19;97964.06;;;3.26;100.00
41334;BME280;27078;46.428;6.256;2023-02-04T05:43:44;97962.88;;;3.35;100.00
41334;BME280;27078;46.428;6.256;2023-02-04T05:46:09;97964.56;;;3.36;100.00
41334;BME280;27078;46.428;6.256;2023-02-04T05:48:35;97968.91;;;3.37;100.00
41334;BME280;27078;46.428;6.256;2023-02-04T05:51:00;97974.56;;;3.49;100.00
41334;BME280;27078;46.428;6.256;2023-02-04T05:53:25;97972.88;;;3.47;100.00
41334;BME280;27078;46.428;6.256;2023-02-04T05:55:51;97977.38;;;3.44;100.00
41334;BME280;27078;46.428;6.256;2023-02-04T05:58:16;97976.06;;;3.56;100.00
41334;BME280;27078;46.428;6.256;2023-02-04T06:00:41;97976.63;;;3.64;100.00
41334;BME280;27078;46.428;6.256;2023-02-04T06:03:07;97980.69;;;3.73;100.00
41334;BME280;27078;46.428;6.256;2023-02-04T06:05:32;97982.16;;;3.80;100.00
41334;BME280;27078;46.428;6.256;2023-02-04T06:07:57;97986.97;;;3.91;100.00
41334;BME280;27078;46.428;6.256;2023-02-04T06:10:23;97990.16;;;3.99;100.00
41334;BME280;27078;46.428;6.256;2023-02-04T06:12:48;97986.38;;;4.06;100.00
41334;BME280;27078;46.428;6.256;2023-02-04T06:15:14;97992.41;;;4.08;100.00
41334;BME280;27078;46.428;6.256;2023-02-04T06:17:39;97998.66;;;4.04;100.00
41334;BME280;27078;46.428;6.256;2023-02-04T06:20:05;97985.28;;;3.90;100.00
41334;BME280;27078;46.428;6.256;2023-02-04T06:22:30;97994.25;;;3.82;100.00
41334;BME280;27078;46.428;6.256;2023-02-04T06:24:56;97997.47;;;3.89;100.00
41334;BME280;27078;46.428;6.256;2023-02-04T06:27:21;98000.19;;;3.87;100.00
41334;BME280;27078;46.428;6.256;2023-02-04T06:29:51;97992.53;;;4.05;100.00
41334;BME280;27078;46.428;6.256;2023-02-04T06:32:17;98005.22;;;3.92;100.00
41334;BME280;27078;46.428;6.256;2023-02-04T06:34:43;98000.09;;;3.89;100.00
41334;BME280;27078;46.428;6.256;2023-02-04T06:37:08;98000.97;;;3.90;100.00
41334;BME280;27078;46.428;6.256;2023-02-04T06:39:33;98003.19;;;4.00;100.00
41334;BME280;27078;46.428;6.256;2023-02-04T06:41:59;98002.03;;;3.84;100.00
41334;BME280;27078;46.428;6.256;2023-02-04T06:44:24;98011.56;;;3.61;100.00
41334;BME280;27078;46.428;6.256;2023-02-04T06:46:49;98010.41;;;3.45;100.00
41334;BME280;27078;46.428;6.256;2023-02-04T06:49:15;98008.22;;;3.58;100.00
41334;BME280;27078;46.428;6.256;2023-02-04T06:51:40;98001.94;;;3.38;100.00
41334;BME280;27078;46.428;6.256;2023-02-04T06:54:05;98009.69;;;3.41;100.00
41334;BME280;27078;46.428;6.256;2023-02-04T06:56:31;98004.97;;;3.51;100.00
41334;BME280;27078;46.428;6.256;2023-02-04T06:58:56;98016.91;;;3.58;100.00
41334;BME280;27078;46.428;6.256;2023-02-04T07:01:21;98010.38;;;3.70;100.00
41334;BME280;27078;46.428;6.256;2023-02-04T07:03:47;98001.75;;;3.68;100.00
41334;BME280;27078;46.428;6.256;2023-02-04T07:06:12;98008.06;;;3.62;100.00
41334;BME280;27078;46.428;6.256;2023-02-04T07:08:37;98005.50;;;3.61;100.00
41334;BME280;27078;46.428;6.256;2023-02-04T07:11:03;98014.34;;;3.57;100.00
41334;BME280;27078;46.428;6.256;2023-02-04T07:13:28;98018.91;;;3.52;100.00
41334;BME280;27078;46.428;6.256;2023-02-04T07:15:53;98020.53;;;3.54;100.00
41334;BME280;27078;46.428;6.256;2023-02-04T07:18:19;98024.81;;;3.57;100.00
41334;BME280;27078;46.428;6.256;2023-02-04T07:20:44;98023.94;;;3.56;100.00
41334;BME280;27078;46.428;6.256;2023-02-04T07:23:10;98026.53;;;3.58;100.00
41334;BME280;27078;46.428;6.256;2023-02-04T07:25:35;98038.31;;;3.68;100.00
41334;BME280;27078;46.428;6.256;2023-02-04T07:28:00;98024.38;;;3.69;100.00
41334;BME280;27078;46.428;6.256;2023-02-04T07:30:28;98029.47;;;3.72;100.00
41334;BME280;27078;46.428;6.256;2023-02-04T07:32:53;98037.88;;;3.80;100.00
41334;BME280;27078;46.428;6.256;2023-02-04T07:35:18;98035.63;;;3.95;100.00
41334;BME280;27078;46.428;6.256;2023-02-04T07:37:44;98045.72;;;4.04;100.00
41334;BME280;27078;46.428;6.256;2023-02-04T07:40:10;98041.28;;;4.06;100.00
41334;BME280;27078;46.428;6.256;2023-02-04T07:42:36;98044.09;;;4.01;100.00
41334;BME280;27078;46.428;6.256;2023-02-04T07:45:02;98039.59;;;4.05;100.00
41334;BME280;27078;46.428;6.256;2023-02-04T07:47:27;98043.63;;;4.14;100.00
41334;BME280;27078;46.428;6.256;2023-02-04T07:49:52;98055.63;;;4.19;100.00
41334;BME280;27078;46.428;6.256;2023-02-04T07:52:21;98054.53;;;4.25;100.00
41334;BME280;27078;46.428;6.256;2023-02-04T07:54:47;98058.06;;;4.24;100.00
41334;BME280;27078;46.428;6.256;2023-02-04T07:57:12;98058.66;;;4.32;100.00
41334;BME280;27078;46.428;6.256;2023-02-04T07:59:37;98057.91;;;4.28;100.00
41334;BME280;27078;46.428;6.256;2023-02-04T08:02:02;98055.44;;;4.47;100.00
41334;BME280;27078;46.428;6.256;2023-02-04T08:04:28;98049.25;;;4.48;100.00
41334;BME280;27078;46.428;6.256;2023-02-04T08:06:53;98054.44;;;4.50;100.00
41334;BME280;27078;46.428;6.256;2023-02-04T08:09:19;98062.53;;;4.44;100.00
41334;BME280;27078;46.428;6.256;2023-02-04T08:11:44;98070.28;;;4.47;100.00
41334;BME280;27078;46.428;6.256;2023-02-04T08:14:09;98073.56;;;4.52;100.00
41334;BME280;27078;46.428;6.256;2023-02-04T08:16:34;98076.22;;;4.51;100.00
41334;BME280;27078;46.428;6.256;2023-02-04T08:19:00;98076.75;;;4.60;100.00
41334;BME280;27078;46.428;6.256;2023-02-04T08:21:25;98077.16;;;4.72;100.00
41334;BME280;27078;46.428;6.256;2023-02-04T08:23:50;98076.91;;;4.78;100.00
41334;BME280;27078;46.428;6.256;2023-02-04T08:26:16;98083.38;;;4.91;100.00
41334;BME280;27078;46.428;6.256;2023-02-04T08:28:41;98080.25;;;5.03;100.00
41334;BME280;27078;46.428;6.256;2023-02-04T08:31:06;98083.91;;;4.99;100.00
41334;BME280;27078;46.428;6.256;2023-02-04T08:33:36;98082.75;;;5.06;100.00
41334;BME280;27078;46.428;6.256;2023-02-04T08:36:04;98073.53;;;5.18;100.00
41334;BME280;27078;46.428;6.256;2023-02-04T08:38:29;98075.00;;;5.25;100.00
41334;BME280;27078;46.428;6.256;2023-02-04T08:40:54;98069.94;;;5.41;100.00
41334;BME280;27078;46.428;6.256;2023-02-04T08:43:20;98073.78;;;5.55;100.00
41334;BME280;27078;46.428;6.256;2023-02-04T08:45:45;98074.00;;;5.69;100.00
41334;BME280;27078;46.428;6.256;2023-02-04T08:48:10;98065.34;;;5.87;100.00
41334;BME280;27078;46.428;6.256;2023-02-04T08:50:36;98073.28;;;6.06;100.00
41334;BME280;27078;46.428;6.256;2023-02-04T08:53:01;98080.09;;;6.10;100.00
41334;BME280;27078;46.428;6.256;2023-02-04T08:55:26;98084.06;;;6.19;100.00
41334;BME280;27078;46.428;6.256;2023-02-04T08:57:52;98072.56;;;6.22;100.00
41334;BME280;27078;46.428;6.256;2023-02-04T09:00:17;98072.88;;;6.35;100.00
41334;BME280;27078;46.428;6.256;2023-02-04T09:02:43;98073.88;;;6.32;100.00
41334;BME280;27078;46.428;6.256;2023-02-04T09:05:08;98072.38;;;6.45;100.00
41334;BME280;27078;46.428;6.256;2023-02-04T09:07:33;98070.78;;;6.60;100.00
41334;BME280;27078;46.428;6.256;2023-02-04T09:09:59;98078.91;;;6.56;100.00
41334;BME280;27078;46.428;6.256;2023-02-04T09:12:24;98081.53;;;6.56;100.00
41334;BME280;27078;46.428;6.256;2023-02-04T09:14:49;98074.41;;;6.77;100.00
41334;BME280;27078;46.428;6.256;2023-02-04T09:17:15;98079.06;;;6.89;100.00
41334;BME280;27078;46.428;6.256;2023-02-04T09:19:40;98078.19;;;7.07;100.00
41334;BME280;27078;46.428;6.256;2023-02-04T09:22:05;98066.84;;;7.24;100.00
41334;BME280;27078;46.428;6.256;2023-02-04T09:24:30;98075.28;;;7.31;100.00
41334;BME280;27078;46.428;6.256;2023-02-04T09:26:56;98076.66;;;7.38;100.00
41334;BME280;27078;46.428;6.256;2023-02-04T09:29:21;98080.91;;;7.41;100.00
41334;BME280;27078;46.428;6.256;2023-02-04T09:31:46;98078.38;;;7.22;100.00
41334;BME280;27078;46.428;6.256;2023-02-04T09:34:12;98076.53;;;7.41;100.00
41334;BME280;27078;46.428;6.256;2023-02-04T09:36:37;98083.03;;;7.51;100.00
41334;BME280;27078;46.428;6.256;2023-02-04T09:39:06;98087.94;;;7.58;100.00
41334;BME280;27078;46.428;6.256;2023-02-04T09:41:34;98080.22;;;7.54;100.00
41334;BME280;27078;46.428;6.256;2023-02-04T09:43:59;98078.66;;;7.68;100.00
41334;BME280;27078;46.428;6.256;2023-02-04T09:46:25;98080.66;;;7.80;100.00
41334;BME280;27078;46.428;6.256;2023-02-04T09:48:53;98078.75;;;8.00;100.00
41334;BME280;27078;46.428;6.256;2023-02-04T09:51:22;98084.13;;;7.98;100.00
41334;BME280;27078;46.428;6.256;2023-02-04T09:53:48;98081.81;;;7.92;100.00
41334;BME280;27078;46.428;6.256;2023-02-04T09:56:16;98086.38;;;7.88;100.00
41334;BME280;27078;46.428;6.256;2023-02-04T09:58:43;98084.03;;;8.00;100.00
41334;BME280;27078;46.428;6.256;2023-02-04T10:01:14;98080.88;;;7.93;100.00
41334;BME280;27078;46.428;6.256;2023-02-04T10:03:40;98089.31;;;7.82;100.00
41334;BME280;27078;46.428;6.256;2023-02-04T10:06:14;98091.19;;;7.80;100.00
41334;BME280;27078;46.428;6.256;2023-02-04T10:08:41;98092.34;;;7.92;100.00
41334;BME280;27078;46.428;6.256;2023-02-04T10:11:08;98093.78;;;7.98;100.00
41334;BME280;27078;46.428;6.256;2023-02-04T10:13:37;98106.63;;;8.04;100.00
41334;BME280;27078;46.428;6.256;2023-02-04T10:16:12;98107.84;;;8.14;100.00
41334;BME280;27078;46.428;6.256;2023-02-04T10:18:38;98111.25;;;8.16;100.00
41334;BME280;27078;46.428;6.256;2023-02-04T10:21:19;98099.38;;;8.25;100.00
41334;BME280;27078;46.428;6.256;2023-02-04T10:23:49;98109.81;;;8.44;100.00
41334;BME280;27078;46.428;6.256;2023-02-04T10:26:16;98106.59;;;8.54;100.00
41334;BME280;27078;46.428;6.256;2023-02-04T10:28:42;98104.13;;;8.67;100.00
41334;BME280;27078;46.428;6.256;2023-02-04T10:31:29;98101.41;;;8.69;100.00
41334;BME280;27078;46.428;6.256;2023-02-04T10:34:06;98092.84;;;8.81;100.00
41334;BME280;27078;46.428;6.256;2023-02-04T10:36:33;98092.47;;;9.03;100.00
41334;BME280;27078;46.428;6.256;2023-02-04T10:39:00;98099.47;;;9.04;100.00
41334;BME280;27078;46.428;6.256;2023-02-04T10:41:26;98096.47;;;8.94;100.00
41334;BME280;27078;46.428;6.256;2023-02-04T10:44:11;98091.44;;;9.06;100.00
41334;BME280;27078;46.428;6.256;2023-02-04T10:46:37;98085.81;;;9.28;100.00
41334;BME280;27078;46.428;6.256;2023-02-04T10:49:19;98084.16;;;9.41;100.00
41334;BME280;27078;46.428;6.256;2023-02-04T10:51:45;98074.31;;;9.29;100.00
41334;BME280;27078;46.428;6.256;2023-02-04T10:54:12;98076.44;;;9.38;100.00
41334;BME280;27078;46.428;6.256;2023-02-04T10:57:10;98068.44;;;9.84;100.00
41334;BME280;27078;46.428;6.256;2023-02-04T10:59:39;98054.69;;;10.08;100.00
41334;BME280;27078;46.428;6.256;2023-02-04T11:04:54;98044.50;;;10.30;100.00
41334;BME280;27078;46.428;6.256;2023-02-04T11:07:20;98046.47;;;10.41;100.00
41334;BME280;27078;46.428;6.256;2023-02-04T11:09:47;98044.53;;;10.72;100.00
41334;BME280;27078;46.428;6.256;2023-02-04T11:12:34;98035.66;;;11.00;100.00
41334;BME280;27078;46.428;6.256;2023-02-04T11:15:00;98028.16;;;11.07;100.00
41334;BME280;27078;46.428;6.256;2023-02-04T11:17:31;98026.91;;;11.12;100.00
41334;BME280;27078;46.428;6.256;2023-02-04T11:19:57;98028.41;;;11.16;100.00
41334;BME280;27078;46.428;6.256;2023-02-04T11:22:39;98024.88;;;11.30;100.00
41334;BME280;27078;46.428;6.256;2023-02-04T11:25:32;98028.56;;;11.00;100.00
41334;BME280;27078;46.428;6.256;2023-02-04T11:27:58;98020.50;;;10.89;100.00
41334;BME280;27078;46.428;6.256;2023-02-04T11:30:30;98015.72;;;11.21;100.00
41334;BME280;27078;46.428;6.256;2023-02-04T11:33:03;98021.28;;;11.44;100.00
41334;BME280;27078;46.428;6.256;2023-02-04T11:35:29;98020.66;;;11.53;100.00
41334;BME280;27078;46.428;6.256;2023-02-04T11:37:55;98011.13;;;11.64;100.00
41334;BME280;27078;46.428;6.256;2023-02-04T11:42:47;98009.88;;;11.56;100.00
41334;BME280;27078;46.428;6.256;2023-02-04T11:45:23;98011.44;;;11.46;100.00
41334;BME280;27078;46.428;6.256;2023-02-04T11:47:50;98012.00;;;11.64;100.00
41334;BME280;27078;46.428;6.256;2023-02-04T11:50:20;98016.00;;;11.82;100.00
41334;BME280;27078;46.428;6.256;2023-02-04T11:52:46;98018.88;;;11.67;100.00
41334;BME280;27078;46.428;6.256;2023-02-04T11:55:11;98017.31;;;11.77;100.00
41334;BME280;27078;46.428;6.256;2023-02-04T11:57:41;98016.66;;;11.86;100.00
41334;BME280;27078;46.428;6.256;2023-02-04T12:00:15;98021.84;;;11.88;100.00
41334;BME280;27078;46.428;6.256;2023-02-04T12:02:47;98018.00;;;11.66;100.00
41334;BME280;27078;46.428;6.256;2023-02-04T12:05:16;98020.97;;;11.74;100.00
41334;BME280;27078;46.428;6.256;2023-02-04T12:07:43;98018.75;;;11.68;100.00
41334;BME280;27078;46.428;6.256;2023-02-04T12:12:51;98023.63;;;11.87;100.00
41334;BME280;27078;46.428;6.256;2023-02-04T12:18:05;98019.22;;;12.13;100.00
41334;BME280;27078;46.428;6.256;2023-02-04T12:20:36;98024.25;;;12.29;100.00
41334;BME280;27078;46.428;6.256;2023-02-04T12:23:02;98007.28;;;12.45;100.00
41334;BME280;27078;46.428;6.256;2023-02-04T12:25:28;98011.13;;;12.15;100.00
41334;BME280;27078;46.428;6.256;2023-02-04T12:27:54;98011.91;;;11.91;100.00
41334;BME280;27078;46.428;6.256;2023-02-04T12:30:21;98011.28;;;12.00;100.00
41334;BME280;27078;46.428;6.256;2023-02-04T12:32:47;98010.09;;;12.17;100.00
41334;BME280;27078;46.428;6.256;2023-02-04T12:35:13;98004.56;;;12.20;100.00
41334;BME280;27078;46.428;6.256;2023-02-04T12:37:38;98008.06;;;12.08;100.00
41334;BME280;27078;46.428;6.256;2023-02-04T12:40:04;97991.88;;;12.26;100.00
41334;BME280;27078;46.428;6.256;2023-02-04T12:42:29;97991.09;;;12.36;100.00
41334;BME280;27078;46.428;6.256;2023-02-04T12:44:54;97989.63;;;12.56;100.00
41334;BME280;27078;46.428;6.256;2023-02-04T12:47:20;97989.59;;;12.69;100.00
41334;BME280;27078;46.428;6.256;2023-02-04T12:49:45;97992.78;;;12.74;100.00
41334;BME280;27078;46.428;6.256;2023-02-04T12:52:10;97989.47;;;12.47;100.00
41334;BME280;27078;46.428;6.256;2023-02-04T12:54:36;97978.66;;;12.50;100.00
41334;BME280;27078;46.428;6.256;2023-02-04T12:57:01;97974.38;;;12.60;100.00
41334;BME280;27078;46.428;6.256;2023-02-04T12:59:27;97971.06;;;12.80;100.00
41334;BME280;27078;46.428;6.256;2023-02-04T13:01:52;97969.72;;;12.99;100.00
41334;BME280;27078;46.428;6.256;2023-02-04T13:04:18;97975.28;;;12.96;100.00
41334;BME280;27078;46.428;6.256;2023-02-04T13:06:43;97969.28;;;13.05;100.00